sensor_id;sensor_type;location;lat;lon;timestamp;temperature;humidity
17152;DHT22;8691;50.828;4.700;2023-07-13T00:00:13;16.20;99.90
17152;DHT22;8691;50.828;4.700;2023-07-13T00:02:39;16.20;99.90
17152;DHT22;8691;50.828;4.700;2023-07-13T00:05:06;16.10;99.90
17152;DHT22;8691;50.828;4.700;2023-07-13T00:07:33;16.10;99.90
17152;DHT22;8691;50.828;4.700;2023-07-13T00:09:59;16.10;99.90
17152;DHT22;8691;50.828;4.700;2023-07-13T00:12:28;16.00;99.90
17152;DHT22;8691;50.828;4.700;2023-07-13T00:14:53;16.00;99.90
17152;DHT22;8691;50.828;4.700;2023-07-13T00:17:21;16.00;99.90
17152;DHT22;8691;50.828;4.700;2023-07-13T00:19:47;15.90;99.90
17152;DHT22;8691;50.828;4.700;2023-07-13T00:22:14;15.90;99.90
17152;DHT22;8691;50.828;4.700;2023-07-13T00:24:40;15.90;99.90
17152;DHT22;8691;50.828;4.700;2023-07-13T00:27:10;15.90;99.90
17152;DHT22;8691;50.828;4.700;2023-07-13T00:29:36;15.90;99.90
17152;DHT22;8691;50.828;4.700;2023-07-13T00:32:04;15.90;99.90
17152;DHT22;8691;50.828;4.700;2023-07-13T00:34:30;15.90;99.90
17152;DHT22;8691;50.828;4.700;2023-07-13T00:36:56;15.80;99.90
17152;DHT22;8691;50.828;4.700;2023-07-13T00:39:24;15.80;99.90
17152;DHT22;8691;50.828;4.700;2023-07-13T00:41:50;15.80;99.90
17152;DHT22;8691;50.828;4.700;2023-07-13T00:44:18;15.80;99.90
17152;DHT22;8691;50.828;4.700;2023-07-13T00:46:44;15.70;99.90
17152;DHT22;8691;50.828;4.700;2023-07-13T00:49:12;15.70;99.90
17152;DHT22;8691;50.828;4.700;2023-07-13T00:51:43;15.70;99.90
17152;DHT22;8691;50.828;4.700;2023-07-13T00:54:08;15.70;99.90
17152;DHT22;8691;50.828;4.700;2023-07-13T00:56:34;15.70;99.90
17152;DHT22;8691;50.828;4.700;2023-07-13T00:59:01;15.70;99.90
17152;DHT22;8691;50.828;4.700;2023-07-13T01:01:27;15.70;99.90
17152;DHT22;8691;50.828;4.700;2023-07-13T01:03:54;15.60;99.90
17152;DHT22;8691;50.828;4.700;2023-07-13T01:06:21;15.60;99.90
17152;DHT22;8691;50.828;4.700;2023-07-13T01:08:48;15.60;99.90
17152;DHT22;8691;50.828;4.700;2023-07-13T01:11:19;15.60;99.90
17152;DHT22;8691;50.828;4.700;2023-07-13T01:13:44;15.60;99.90
17152;DHT22;8691;50.828;4.700;2023-07-13T01:16:15;15.50;99.90
17152;DHT22;8691;50.828;4.700;2023-07-13T01:18:40;15.50;99.90
17152;DHT22;8691;50.828;4.700;2023-07-13T01:21:06;15.50;99.90
17152;DHT22;8691;50.828;4.700;2023-07-13T01:23:33;15.50;99.90
17152;DHT22;8691;50.828;4.700;2023-07-13T01:26:00;15.40;99.90
17152;DHT22;8691;50.828;4.700;2023-07-13T01:28:27;15.40;99.90
17152;DHT22;8691;50.828;4.700;2023-07-13T01:30:53;15.40;99.90
17152;DHT22;8691;50.828;4.700;2023-07-13T01:33:20;15.40;99.90
17152;DHT22;8691;50.828;4.700;2023-07-13T01:35:47;15.30;99.90
17152;DHT22;8691;50.828;4.700;2023-07-13T01:38:14;15.30;99.90
17152;DHT22;8691;50.828;4.700;2023-07-13T01:40:40;15.30;99.90
17152;DHT22;8691;50.828;4.700;2023-07-13T01:43:07;15.30;99.90
17152;DHT22;8691;50.828;4.700;2023-07-13T01:45:34;15.20;99.90
17152;DHT22;8691;50.828;4.700;2023-07-13T01:48:00;15.20;99.90
17152;DHT22;8691;50.828;4.700;2023-07-13T01:50:27;15.30;99.90
17152;DHT22;8691;50.828;4.700;2023-07-13T01:52:54;15.30;99.90
17152;DHT22;8691;50.828;4.700;2023-07-13T01:55:21;15.30;99.90
17152;DHT22;8691;50.828;4.700;2023-07-13T01:57:47;15.30;99.90
17152;DHT22;8691;50.828;4.700;2023-07-13T02:00:14;15.20;99.90
17152;DHT22;8691;50.828;4.700;2023-07-13T02:02:40;15.20;99.90
17152;DHT22;8691;50.828;4.700;2023-07-13T02:05:07;15.20;99.90
17152;DHT22;8691;50.828;4.700;2023-07-13T02:07:34;15.20;99.90
17152;DHT22;8691;50.828;4.700;2023-07-13T02:10:00;15.10;99.90
17152;DHT22;8691;50.828;4.700;2023-07-13T02:12:28;15.10;99.90
17152;DHT22;8691;50.828;4.700;2023-07-13T02:14:54;15.10;99.90
17152;DHT22;8691;50.828;4.700;2023-07-13T02:17:22;15.00;99.90
17152;DHT22;8691;50.828;4.700;2023-07-13T02:19:48;15.00;99.90
17152;DHT22;8691;50.828;4.700;2023-07-13T02:22:16;15.00;99.90
17152;DHT22;8691;50.828;4.700;2023-07-13T02:24:42;15.00;99.90
17152;DHT22;8691;50.828;4.700;2023-07-13T02:27:09;14.90;99.90
17152;DHT22;8691;50.828;4.700;2023-07-13T02:29:36;14.90;99.90
17152;DHT22;8691;50.828;4.700;2023-07-13T02:32:02;14.80;99.90
17152;DHT22;8691;50.828;4.700;2023-07-13T02:34:29;14.90;99.90
17152;DHT22;8691;50.828;4.700;2023-07-13T02:36:56;14.80;99.90
17152;DHT22;8691;50.828;4.700;2023-07-13T02:39:23;14.90;99.90
17152;DHT22;8691;50.828;4.700;2023-07-13T02:41:49;14.80;99.90
17152;DHT22;8691;50.828;4.700;2023-07-13T02:44:16;14.80;99.90
17152;DHT22;8691;50.828;4.700;2023-07-13T02:46:43;14.80;99.90
17152;DHT22;8691;50.828;4.700;2023-07-13T02:49:10;14.80;99.90
17152;DHT22;8691;50.828;4.700;2023-07-13T02:51:36;14.80;99.90
17152;DHT22;8691;50.828;4.700;2023-07-13T02:54:04;14.80;99.90
17152;DHT22;8691;50.828;4.700;2023-07-13T02:56:31;14.80;99.90
17152;DHT22;8691;50.828;4.700;2023-07-13T02:58:57;14.80;99.90
17152;DHT22;8691;50.828;4.700;2023-07-13T03:01:23;14.80;99.90
17152;DHT22;8691;50.828;4.700;2023-07-13T03:03:50;14.80;99.90
17152;DHT22;8691;50.828;4.700;2023-07-13T03:06:16;14.80;99.90
17152;DHT22;8691;50.828;4.700;2023-07-13T03:08:43;14.70;99.90
17152;DHT22;8691;50.828;4.700;2023-07-13T03:11:14;14.70;99.90
17152;DHT22;8691;50.828;4.700;2023-07-13T03:13:40;14.70;99.90
17152;DHT22;8691;50.828;4.700;2023-07-13T03:16:08;14.70;99.90
17152;DHT22;8691;50.828;4.700;2023-07-13T03:18:34;14.70;99.90
17152;DHT22;8691;50.828;4.700;2023-07-13T03:21:00;14.70;99.90
17152;DHT22;8691;50.828;4.700;2023-07-13T03:23:28;14.80;99.90
17152;DHT22;8691;50.828;4.700;2023-07-13T03:26:10;14.70;99.90
17152;DHT22;8691;50.828;4.700;2023-07-13T03:28:35;14.80;99.90
17152;DHT22;8691;50.828;4.700;2023-07-13T03:31:21;14.70;99.90
17152;DHT22;8691;50.828;4.700;2023-07-13T03:33:32;14.70;99.90
17152;DHT22;8691;50.828;4.700;2023-07-13T03:35:59;14.70;99.90
17152;DHT22;8691;50.828;4.700;2023-07-13T03:38:26;14.70;99.90
17152;DHT22;8691;50.828;4.700;2023-07-13T03:40:52;14.70;99.90
17152;DHT22;8691;50.828;4.700;2023-07-13T03:43:19;14.70;99.90
17152;DHT22;8691;50.828;4.700;2023-07-13T03:45:46;14.80;99.90
17152;DHT22;8691;50.828;4.700;2023-07-13T03:48:12;14.80;99.90
17152;DHT22;8691;50.828;4.700;2023-07-13T03:50:39;14.80;99.90
17152;DHT22;8691;50.828;4.700;2023-07-13T03:53:06;14.80;99.90
17152;DHT22;8691;50.828;4.700;2023-07-13T03:55:32;14.90;99.90
17152;DHT22;8691;50.828;4.700;2023-07-13T03:58:00;14.90;99.90
17152;DHT22;8691;50.828;4.700;2023-07-13T04:00:26;14.90;99.90
17152;DHT22;8691;50.828;4.700;2023-07-13T04:02:52;15.00;99.90
17152;DHT22;8691;50.828;4.700;2023-07-13T04:05:19;15.10;99.90
17152;DHT22;8691;50.828;4.700;2023-07-13T04:07:46;15.10;99.90
17152;DHT22;8691;50.828;4.700;2023-07-13T04:10:12;15.20;99.90
17152;DHT22;8691;50.828;4.700;2023-07-13T04:12:39;15.30;99.90
17152;DHT22;8691;50.828;4.700;2023-07-13T04:15:06;15.40;99.90
17152;DHT22;8691;50.828;4.700;2023-07-13T04:17:32;15.60;99.90
17152;DHT22;8691;50.828;4.700;2023-07-13T04:19:59;15.60;99.90
17152;DHT22;8691;50.828;4.700;2023-07-13T04:22:26;15.80;99.90
17152;DHT22;8691;50.828;4.700;2023-07-13T04:24:52;15.90;99.90
17152;DHT22;8691;50.828;4.700;2023-07-13T04:27:19;16.00;99.90
17152;DHT22;8691;50.828;4.700;2023-07-13T04:29:46;16.20;99.90
17152;DHT22;8691;50.828;4.700;2023-07-13T04:32:13;16.20;99.90
17152;DHT22;8691;50.828;4.700;2023-07-13T04:34:39;16.30;99.90
17152;DHT22;8691;50.828;4.700;2023-07-13T04:37:07;16.40;99.90
17152;DHT22;8691;50.828;4.700;2023-07-13T04:39:33;16.40;99.90
17152;DHT22;8691;50.828;4.700;2023-07-13T04:42:01;16.30;99.90
17152;DHT22;8691;50.828;4.700;2023-07-13T04:44:27;16.30;99.90
17152;DHT22;8691;50.828;4.700;2023-07-13T04:46:55;16.30;99.90
17152;DHT22;8691;50.828;4.700;2023-07-13T04:49:21;16.30;99.90
17152;DHT22;8691;50.828;4.700;2023-07-13T04:51:48;16.30;99.90
17152;DHT22;8691;50.828;4.700;2023-07-13T04:54:15;16.40;99.90
17152;DHT22;8691;50.828;4.700;2023-07-13T04:56:41;16.50;99.90
17152;DHT22;8691;50.828;4.700;2023-07-13T04:59:08;16.50;99.90
17152;DHT22;8691;50.828;4.700;2023-07-13T05:01:34;16.60;99.90
17152;DHT22;8691;50.828;4.700;2023-07-13T05:04:01;16.80;99.90
17152;DHT22;8691;50.828;4.700;2023-07-13T05:06:28;17.10;99.90
17152;DHT22;8691;50.828;4.700;2023-07-13T05:08:55;17.30;99.90
17152;DHT22;8691;50.828;4.700;2023-07-13T05:11:21;17.40;99.90
17152;DHT22;8691;50.828;4.700;2023-07-13T05:13:49;17.60;99.90
17152;DHT22;8691;50.828;4.700;2023-07-13T05:16:16;17.50;99.90
17152;DHT22;8691;50.828;4.700;2023-07-13T05:18:42;17.60;99.90
17152;DHT22;8691;50.828;4.700;2023-07-13T05:21:10;17.60;99.90
17152;DHT22;8691;50.828;4.700;2023-07-13T05:23:36;17.80;99.90
17152;DHT22;8691;50.828;4.700;2023-07-13T05:26:03;17.80;99.90
17152;DHT22;8691;50.828;4.700;2023-07-13T05:28:30;18.00;99.90
17152;DHT22;8691;50.828;4.700;2023-07-13T05:30:56;18.00;99.90
17152;DHT22;8691;50.828;4.700;2023-07-13T05:33:24;18.30;99.90
17152;DHT22;8691;50.828;4.700;2023-07-13T05:35:50;18.20;99.90
17152;DHT22;8691;50.828;4.700;2023-07-13T05:38:18;18.50;99.90
17152;DHT22;8691;50.828;4.700;2023-07-13T05:40:45;18.40;99.90
17152;DHT22;8691;50.828;4.700;2023-07-13T05:43:12;18.70;99.90
17152;DHT22;8691;50.828;4.700;2023-07-13T05:45:38;18.70;99.90
17152;DHT22;8691;50.828;4.700;2023-07-13T05:48:05;19.10;99.90
17152;DHT22;8691;50.828;4.700;2023-07-13T05:50:32;19.80;99.90
17152;DHT22;8691;50.828;4.700;2023-07-13T05:52:59;20.40;99.90
17152;DHT22;8691;50.828;4.700;2023-07-13T05:55:26;21.00;99.90
17152;DHT22;8691;50.828;4.700;2023-07-13T05:57:52;20.70;99.90
17152;DHT22;8691;50.828;4.700;2023-07-13T06:00:19;20.20;99.90
17152;DHT22;8691;50.828;4.700;2023-07-13T06:02:46;19.80;99.90
17152;DHT22;8691;50.828;4.700;2023-07-13T06:05:13;19.70;99.90
17152;DHT22;8691;50.828;4.700;2023-07-13T06:07:40;19.70;99.90
17152;DHT22;8691;50.828;4.700;2023-07-13T06:10:07;19.50;99.90
17152;DHT22;8691;50.828;4.700;2023-07-13T06:12:34;19.40;99.90
17152;DHT22;8691;50.828;4.700;2023-07-13T06:15:00;19.20;99.90
17152;DHT22;8691;50.828;4.700;2023-07-13T06:17:28;19.20;99.90
17152;DHT22;8691;50.828;4.700;2023-07-13T06:19:54;19.20;99.90
17152;DHT22;8691;50.828;4.700;2023-07-13T06:22:22;19.20;99.90
17152;DHT22;8691;50.828;4.700;2023-07-13T06:24:48;19.20;99.90
17152;DHT22;8691;50.828;4.700;2023-07-13T06:27:16;19.20;99.90
17152;DHT22;8691;50.828;4.700;2023-07-13T06:29:42;19.20;99.90
17152;DHT22;8691;50.828;4.700;2023-07-13T06:32:09;19.10;99.90
17152;DHT22;8691;50.828;4.700;2023-07-13T06:34:36;19.20;99.90
17152;DHT22;8691;50.828;4.700;2023-07-13T06:37:02;19.20;99.90
17152;DHT22;8691;50.828;4.700;2023-07-13T06:39:29;19.30;99.90
17152;DHT22;8691;50.828;4.700;2023-07-13T06:41:55;19.30;99.90
17152;DHT22;8691;50.828;4.700;2023-07-13T06:44:22;19.40;99.90
17152;DHT22;8691;50.828;4.700;2023-07-13T06:46:49;19.50;99.90
17152;DHT22;8691;50.828;4.700;2023-07-13T06:49:16;19.70;99.90
17152;DHT22;8691;50.828;4.700;2023-07-13T06:51:43;19.80;99.90
17152;DHT22;8691;50.828;4.700;2023-07-13T06:54:09;20.10;99.90
17152;DHT22;8691;50.828;4.700;2023-07-13T06:56:36;20.30;99.90
17152;DHT22;8691;50.828;4.700;2023-07-13T06:59:03;20.60;99.90
17152;DHT22;8691;50.828;4.700;2023-07-13T07:01:30;20.60;99.90
17152;DHT22;8691;50.828;4.700;2023-07-13T07:03:57;20.80;99.90
17152;DHT22;8691;50.828;4.700;2023-07-13T07:06:23;20.80;99.90
17152;DHT22;8691;50.828;4.700;2023-07-13T07:08:51;20.90;99.90
17152;DHT22;8691;50.828;4.700;2023-07-13T07:11:23;20.90;99.90
17152;DHT22;8691;50.828;4.700;2023-07-13T07:13:48;21.50;99.90
17152;DHT22;8691;50.828;4.700;2023-07-13T07:16:15;21.40;99.90
17152;DHT22;8691;50.828;4.700;2023-07-13T07:18:42;21.70;99.90
17152;DHT22;8691;50.828;4.700;2023-07-13T07:21:09;22.10;99.90
17152;DHT22;8691;50.828;4.700;2023-07-13T07:23:36;22.10;99.90
17152;DHT22;8691;50.828;4.700;2023-07-13T07:26:03;21.90;99.90
17152;DHT22;8691;50.828;4.700;2023-07-13T07:28:30;22.00;99.90
17152;DHT22;8691;50.828;4.700;2023-07-13T07:30:57;21.90;99.90
17152;DHT22;8691;50.828;4.700;2023-07-13T07:33:23;22.20;99.90
17152;DHT22;8691;50.828;4.700;2023-07-13T07:35:49;22.40;99.90
17152;DHT22;8691;50.828;4.700;2023-07-13T07:38:16;22.70;99.90
17152;DHT22;8691;50.828;4.700;2023-07-13T07:40:43;22.90;99.90
17152;DHT22;8691;50.828;4.700;2023-07-13T07:43:10;23.20;99.90
17152;DHT22;8691;50.828;4.700;2023-07-13T07:45:36;23.30;99.90
17152;DHT22;8691;50.828;4.700;2023-07-13T07:48:04;23.60;99.90
17152;DHT22;8691;50.828;4.700;2023-07-13T07:50:30;23.50;99.90
17152;DHT22;8691;50.828;4.700;2023-07-13T07:52:57;23.50;99.90
17152;DHT22;8691;50.828;4.700;2023-07-13T07:55:24;23.50;99.90
17152;DHT22;8691;50.828;4.700;2023-07-13T07:57:52;23.00;99.90
17152;DHT22;8691;50.828;4.700;2023-07-13T08:00:18;23.00;99.90
17152;DHT22;8691;50.828;4.700;2023-07-13T08:02:45;22.70;99.90
17152;DHT22;8691;50.828;4.700;2023-07-13T08:05:12;22.50;99.90
17152;DHT22;8691;50.828;4.700;2023-07-13T08:07:38;22.10;99.90
17152;DHT22;8691;50.828;4.700;2023-07-13T08:10:05;21.80;99.90
17152;DHT22;8691;50.828;4.700;2023-07-13T08:12:38;21.80;99.90
17152;DHT22;8691;50.828;4.700;2023-07-13T08:15:04;22.20;99.90
17152;DHT22;8691;50.828;4.700;2023-07-13T08:17:31;22.50;99.90
17152;DHT22;8691;50.828;4.700;2023-07-13T08:19:57;22.80;99.90
17152;DHT22;8691;50.828;4.700;2023-07-13T08:22:24;23.00;99.90
17152;DHT22;8691;50.828;4.700;2023-07-13T08:24:51;23.10;99.90
17152;DHT22;8691;50.828;4.700;2023-07-13T08:27:17;23.20;99.90
17152;DHT22;8691;50.828;4.700;2023-07-13T08:29:44;23.50;99.90
17152;DHT22;8691;50.828;4.700;2023-07-13T08:32:11;24.70;99.80
17152;DHT22;8691;50.828;4.700;2023-07-13T08:34:38;24.70;99.80
17152;DHT22;8691;50.828;4.700;2023-07-13T08:37:04;25.10;98.60
17152;DHT22;8691;50.828;4.700;2023-07-13T08:39:31;25.10;98.00
17152;DHT22;8691;50.828;4.700;2023-07-13T08:42:02;25.20;99.40
17152;DHT22;8691;50.828;4.700;2023-07-13T08:44:36;25.70;98.70
17152;DHT22;8691;50.828;4.700;2023-07-13T08:46:57;26.30;95.80
17152;DHT22;8691;50.828;4.700;2023-07-13T08:49:24;26.20;95.80
17152;DHT22;8691;50.828;4.700;2023-07-13T08:51:57;27.10;95.40
17152;DHT22;8691;50.828;4.700;2023-07-13T08:54:40;27.70;93.50
17152;DHT22;8691;50.828;4.700;2023-07-13T08:57:08;28.30;93.70
17152;DHT22;8691;50.828;4.700;2023-07-13T08:59:30;29.50;89.80
17152;DHT22;8691;50.828;4.700;2023-07-13T09:04:37;29.80;88.50
17152;DHT22;8691;50.828;4.700;2023-07-13T09:07:24;29.80;86.50
17152;DHT22;8691;50.828;4.700;2023-07-13T09:10:15;29.80;89.00
17152;DHT22;8691;50.828;4.700;2023-07-13T09:15:37;30.80;86.30
17152;DHT22;8691;50.828;4.700;2023-07-13T09:18:04;31.10;82.30
17152;DHT22;8691;50.828;4.700;2023-07-13T09:20:50;31.70;78.60
17152;DHT22;8691;50.828;4.700;2023-07-13T09:22:54;32.10;75.70
17152;DHT22;8691;50.828;4.700;2023-07-13T09:25:30;32.00;76.80
17152;DHT22;8691;50.828;4.700;2023-07-13T09:28:09;32.50;73.40
17152;DHT22;8691;50.828;4.700;2023-07-13T09:30:52;31.80;76.70
17152;DHT22;8691;50.828;4.700;2023-07-13T09:33:21;30.70;76.60
17152;DHT22;8691;50.828;4.700;2023-07-13T09:35:49;27.30;86.30
17152;DHT22;8691;50.828;4.700;2023-07-13T09:38:17;27.20;86.20
17152;DHT22;8691;50.828;4.700;2023-07-13T09:41:19;26.50;90.70
17152;DHT22;8691;50.828;4.700;2023-07-13T09:43:17;26.40;90.70
17152;DHT22;8691;50.828;4.700;2023-07-13T09:45:45;25.60;94.30
17152;DHT22;8691;50.828;4.700;2023-07-13T09:48:12;25.60;94.30
17152;DHT22;8691;50.828;4.700;2023-07-13T09:50:40;28.10;91.90
17152;DHT22;8691;50.828;4.700;2023-07-13T09:53:16;28.10;91.90
17152;DHT22;8691;50.828;4.700;2023-07-13T09:55:42;30.60;82.10
17152;DHT22;8691;50.828;4.700;2023-07-13T09:58:21;30.60;81.90
17152;DHT22;8691;50.828;4.700;2023-07-13T10:00:54;31.50;78.00
17152;DHT22;8691;50.828;4.700;2023-07-13T10:03:22;31.40;74.90
17152;DHT22;8691;50.828;4.700;2023-07-13T10:05:49;31.30;74.80
17152;DHT22;8691;50.828;4.700;2023-07-13T10:08:21;30.30;77.80
17152;DHT22;8691;50.828;4.700;2023-07-13T10:10:49;30.40;76.30
17152;DHT22;8691;50.828;4.700;2023-07-13T10:13:33;30.40;76.30
17152;DHT22;8691;50.828;4.700;2023-07-13T10:15:50;30.80;77.10
17152;DHT22;8691;50.828;4.700;2023-07-13T10:18:17;31.60;76.10
17152;DHT22;8691;50.828;4.700;2023-07-13T10:20:44;31.30;72.40
17152;DHT22;8691;50.828;4.700;2023-07-13T10:23:13;31.30;72.40
17152;DHT22;8691;50.828;4.700;2023-07-13T10:25:39;31.20;71.10
17152;DHT22;8691;50.828;4.700;2023-07-13T10:28:21;30.10;72.20
17152;DHT22;8691;50.828;4.700;2023-07-13T10:30:34;28.90;76.60
17152;DHT22;8691;50.828;4.700;2023-07-13T10:33:02;29.30;77.20
17152;DHT22;8691;50.828;4.700;2023-07-13T10:35:29;29.20;77.10
17152;DHT22;8691;50.828;4.700;2023-07-13T10:38:03;29.40;77.40
17152;DHT22;8691;50.828;4.700;2023-07-13T10:40:42;29.50;75.80
17152;DHT22;8691;50.828;4.700;2023-07-13T10:45:52;29.00;78.30
17152;DHT22;8691;50.828;4.700;2023-07-13T10:48:20;29.20;78.70
17152;DHT22;8691;50.828;4.700;2023-07-13T10:50:48;30.00;73.20
17152;DHT22;8691;50.828;4.700;2023-07-13T10:53:18;30.00;73.10
17152;DHT22;8691;50.828;4.700;2023-07-13T10:58:31;29.00;76.50
17152;DHT22;8691;50.828;4.700;2023-07-13T11:01:01;28.10;76.90
17152;DHT22;8691;50.828;4.700;2023-07-13T11:03:23;27.80;79.90
17152;DHT22;8691;50.828;4.700;2023-07-13T11:05:50;27.70;81.20
17152;DHT22;8691;50.828;4.700;2023-07-13T11:08:23;27.70;81.70
17152;DHT22;8691;50.828;4.700;2023-07-13T11:10:55;27.80;78.80
17152;DHT22;8691;50.828;4.700;2023-07-13T11:18:49;28.30;76.00
17152;DHT22;8691;50.828;4.700;2023-07-13T11:21:17;28.10;78.70
17152;DHT22;8691;50.828;4.700;2023-07-13T11:23:43;28.10;78.60
17152;DHT22;8691;50.828;4.700;2023-07-13T11:26:41;28.00;79.40
17152;DHT22;8691;50.828;4.700;2023-07-13T11:31:52;28.50;79.80
17152;DHT22;8691;50.828;4.700;2023-07-13T11:34:33;28.90;79.00
17152;DHT22;8691;50.828;4.700;2023-07-13T11:36:48;28.90;76.70
17152;DHT22;8691;50.828;4.700;2023-07-13T11:39:32;28.80;74.40
17152;DHT22;8691;50.828;4.700;2023-07-13T11:41:55;28.80;74.40
17152;DHT22;8691;50.828;4.700;2023-07-13T11:44:22;28.40;77.60
17152;DHT22;8691;50.828;4.700;2023-07-13T11:46:52;28.50;78.20
17152;DHT22;8691;50.828;4.700;2023-07-13T11:49:19;28.60;75.60
17152;DHT22;8691;50.828;4.700;2023-07-13T11:51:45;28.90;76.00
17152;DHT22;8691;50.828;4.700;2023-07-13T11:54:28;28.70;76.00
17152;DHT22;8691;50.828;4.700;2023-07-13T11:57:10;28.60;76.80
17152;DHT22;8691;50.828;4.700;2023-07-13T11:59:33;28.40;75.60
17152;DHT22;8691;50.828;4.700;2023-07-13T12:02:00;28.10;77.40
17152;DHT22;8691;50.828;4.700;2023-07-13T12:04:29;27.80;76.10
17152;DHT22;8691;50.828;4.700;2023-07-13T12:06:56;27.90;76.20
17152;DHT22;8691;50.828;4.700;2023-07-13T12:09:22;27.70;76.50
17152;DHT22;8691;50.828;4.700;2023-07-13T12:11:49;28.00;78.70
17152;DHT22;8691;50.828;4.700;2023-07-13T12:14:17;28.00;78.70
17152;DHT22;8691;50.828;4.700;2023-07-13T12:16:45;28.00;77.30
17152;DHT22;8691;50.828;4.700;2023-07-13T12:19:22;27.20;77.80
17152;DHT22;8691;50.828;4.700;2023-07-13T12:21:48;27.10;77.70
17152;DHT22;8691;50.828;4.700;2023-07-13T12:24:16;27.00;79.10
17152;DHT22;8691;50.828;4.700;2023-07-13T12:26:42;27.00;79.10
17152;DHT22;8691;50.828;4.700;2023-07-13T12:29:15;26.80;79.50
17152;DHT22;8691;50.828;4.700;2023-07-13T12:31:46;26.70;81.70
17152;DHT22;8691;50.828;4.700;2023-07-13T12:34:21;27.00;79.80
17152;DHT22;8691;50.828;4.700;2023-07-13T12:36:53;27.40;81.10
17152;DHT22;8691;50.828;4.700;2023-07-13T12:39:23;27.60;78.90
17152;DHT22;8691;50.828;4.700;2023-07-13T12:41:49;27.60;79.00
17152;DHT22;8691;50.828;4.700;2023-07-13T12:44:29;27.60;77.30
17152;DHT22;8691;50.828;4.700;2023-07-13T12:47:03;27.00;77.60
17152;DHT22;8691;50.828;4.700;2023-07-13T12:49:27;27.00;77.60
17152;DHT22;8691;50.828;4.700;2023-07-13T12:51:56;26.70;79.20
17152;DHT22;8691;50.828;4.700;2023-07-13T12:54:22;26.80;79.50
17152;DHT22;8691;50.828;4.700;2023-07-13T12:56:49;27.00;80.80
17152;DHT22;8691;50.828;4.700;2023-07-13T12:59:18;27.40;76.80
17152;DHT22;8691;50.828;4.700;2023-07-13T13:01:45;27.40;76.80
17152;DHT22;8691;50.828;4.700;2023-07-13T13:04:11;27.50;76.30
17152;DHT22;8691;50.828;4.700;2023-07-13T13:06:39;27.70;76.70
17152;DHT22;8691;50.828;4.700;2023-07-13T13:09:09;27.50;77.30
17152;DHT22;8691;50.828;4.700;2023-07-13T13:11:33;26.80;83.40
17152;DHT22;8691;50.828;4.700;2023-07-13T13:13:59;25.90;88.10
17152;DHT22;8691;50.828;4.700;2023-07-13T13:16:31;25.40;90.90
17152;DHT22;8691;50.828;4.700;2023-07-13T13:18:54;25.10;91.50
17152;DHT22;8691;50.828;4.700;2023-07-13T13:21:20;24.90;91.40
17152;DHT22;8691;50.828;4.700;2023-07-13T13:23:46;24.60;92.00
17152;DHT22;8691;50.828;4.700;2023-07-13T13:26:14;24.30;92.80
17152;DHT22;8691;50.828;4.700;2023-07-13T13:28:40;24.10;94.50
17152;DHT22;8691;50.828;4.700;2023-07-13T13:31:07;23.80;96.40
17152;DHT22;8691;50.828;4.700;2023-07-13T13:33:33;23.50;99.10
17152;DHT22;8691;50.828;4.700;2023-07-13T13:36:00;23.50;99.60
17152;DHT22;8691;50.828;4.700;2023-07-13T13:38:27;23.30;99.80
17152;DHT22;8691;50.828;4.700;2023-07-13T13:40:53;23.20;99.90
17152;DHT22;8691;50.828;4.700;2023-07-13T13:43:24;24.30;99.90
17152;DHT22;8691;50.828;4.700;2023-07-13T13:45:49;24.30;99.90
17152;DHT22;8691;50.828;4.700;2023-07-13T13:48:29;25.10;98.90
17152;DHT22;8691;50.828;4.700;2023-07-13T13:50:48;25.80;96.30
17152;DHT22;8691;50.828;4.700;2023-07-13T13:53:15;25.90;95.50
17152;DHT22;8691;50.828;4.700;2023-07-13T13:55:41;26.00;94.90
17152;DHT22;8691;50.828;4.700;2023-07-13T13:58:09;26.00;95.30
17152;DHT22;8691;50.828;4.700;2023-07-13T14:00:35;26.10;94.40
17152;DHT22;8691;50.828;4.700;2023-07-13T14:03:01;26.10;93.90
17152;DHT22;8691;50.828;4.700;2023-07-13T14:05:28;26.00;93.90
17152;DHT22;8691;50.828;4.700;2023-07-13T14:07:54;26.10;93.50
17152;DHT22;8691;50.828;4.700;2023-07-13T14:10:21;26.10;93.10
17152;DHT22;8691;50.828;4.700;2023-07-13T14:12:50;26.20;93.40
17152;DHT22;8691;50.828;4.700;2023-07-13T14:17:44;26.40;93.40
17152;DHT22;8691;50.828;4.700;2023-07-13T14:20:11;26.50;93.30
17152;DHT22;8691;50.828;4.700;2023-07-13T14:22:37;26.60;92.50
17152;DHT22;8691;50.828;4.700;2023-07-13T14:25:03;26.60;92.40
17152;DHT22;8691;50.828;4.700;2023-07-13T14:27:30;26.50;92.80
17152;DHT22;8691;50.828;4.700;2023-07-13T14:29:57;26.50;92.90
17152;DHT22;8691;50.828;4.700;2023-07-13T14:32:24;26.40;93.00
17152;DHT22;8691;50.828;4.700;2023-07-13T14:34:51;26.40;92.50
17152;DHT22;8691;50.828;4.700;2023-07-13T14:37:19;26.90;92.10
17152;DHT22;8691;50.828;4.700;2023-07-13T14:39:46;26.90;92.10
17152;DHT22;8691;50.828;4.700;2023-07-13T14:42:13;26.80;92.10
17152;DHT22;8691;50.828;4.700;2023-07-13T14:44:40;26.60;92.00
17152;DHT22;8691;50.828;4.700;2023-07-13T14:47:07;26.40;92.20
17152;DHT22;8691;50.828;4.700;2023-07-13T14:49:40;26.50;92.60
17152;DHT22;8691;50.828;4.700;2023-07-13T14:52:19;26.40;91.50
17152;DHT22;8691;50.828;4.700;2023-07-13T14:54:45;26.30;91.80
17152;DHT22;8691;50.828;4.700;2023-07-13T14:57:16;26.30;92.00
17152;DHT22;8691;50.828;4.700;2023-07-13T14:59:42;26.30;92.00
17152;DHT22;8691;50.828;4.700;2023-07-13T15:04:50;26.20;90.40
17152;DHT22;8691;50.828;4.700;2023-07-13T15:07:17;26.00;89.00
17152;DHT22;8691;50.828;4.700;2023-07-13T15:09:44;25.70;90.70
17152;DHT22;8691;50.828;4.700;2023-07-13T15:12:10;25.40;91.20
17152;DHT22;8691;50.828;4.700;2023-07-13T15:14:37;25.30;91.10
17152;DHT22;8691;50.828;4.700;2023-07-13T15:17:04;25.30;91.70
17152;DHT22;8691;50.828;4.700;2023-07-13T15:19:31;25.20;92.00
17152;DHT22;8691;50.828;4.700;2023-07-13T15:21:58;25.40;92.30
17152;DHT22;8691;50.828;4.700;2023-07-13T15:24:25;25.50;92.00
17152;DHT22;8691;50.828;4.700;2023-07-13T15:26:52;25.70;91.70
17152;DHT22;8691;50.828;4.700;2023-07-13T15:29:20;25.80;91.30
17152;DHT22;8691;50.828;4.700;2023-07-13T15:31:47;25.80;91.60
17152;DHT22;8691;50.828;4.700;2023-07-13T15:34:18;25.90;91.50
17152;DHT22;8691;50.828;4.700;2023-07-13T15:36:43;25.80;91.00
17152;DHT22;8691;50.828;4.700;2023-07-13T15:39:13;25.60;91.60
17152;DHT22;8691;50.828;4.700;2023-07-13T15:41:37;25.40;91.70
17152;DHT22;8691;50.828;4.700;2023-07-13T15:44:05;25.20;91.60
17152;DHT22;8691;50.828;4.700;2023-07-13T15:46:30;25.10;92.20
17152;DHT22;8691;50.828;4.700;2023-07-13T15:48:57;25.00;93.10
17152;DHT22;8691;50.828;4.700;2023-07-13T15:51:25;25.00;93.40
17152;DHT22;8691;50.828;4.700;2023-07-13T15:53:55;25.20;93.40
17152;DHT22;8691;50.828;4.700;2023-07-13T15:56:22;25.30;93.00
17152;DHT22;8691;50.828;4.700;2023-07-13T15:58:49;25.80;91.30
17152;DHT22;8691;50.828;4.700;2023-07-13T16:01:15;25.80;91.20
17152;DHT22;8691;50.828;4.700;2023-07-13T16:03:42;26.00;91.20
17152;DHT22;8691;50.828;4.700;2023-07-13T16:06:25;26.20;90.30
17152;DHT22;8691;50.828;4.700;2023-07-13T16:08:51;26.30;88.50
17152;DHT22;8691;50.828;4.700;2023-07-13T16:11:27;26.40;88.70